sensor_id;sensor_type;location;lat;lon;timestamp;temperature;humidity
24207;DHT22;12351;52.284;9.160;2022-09-01T00:00:24;15.90;99.90
24207;DHT22;12351;52.284;9.160;2022-09-01T00:03:12;16.00;99.90
24207;DHT22;12351;52.284;9.160;2022-09-01T00:05:59;15.90;99.90
24207;DHT22;12351;52.284;9.160;2022-09-01T00:08:46;15.80;99.90
24207;DHT22;12351;52.284;9.160;2022-09-01T00:11:33;15.70;99.90
24207;DHT22;12351;52.284;9.160;2022-09-01T00:14:24;15.70;99.90
24207;DHT22;12351;52.284;9.160;2022-09-01T00:17:11;15.70;99.90
24207;DHT22;12351;52.284;9.160;2022-09-01T00:19:58;15.80;99.90
24207;DHT22;12351;52.284;9.160;2022-09-01T00:22:44;15.80;99.90
24207;DHT22;12351;52.284;9.160;2022-09-01T00:25:31;15.80;99.90
24207;DHT22;12351;52.284;9.160;2022-09-01T00:28:18;15.70;99.90
24207;DHT22;12351;52.284;9.160;2022-09-01T00:31:06;15.70;99.90
24207;DHT22;12351;52.284;9.160;2022-09-01T00:33:54;15.70;99.90
24207;DHT22;12351;52.284;9.160;2022-09-01T00:36:40;15.70;99.90
24207;DHT22;12351;52.284;9.160;2022-09-01T00:39:27;15.60;99.90
24207;DHT22;12351;52.284;9.160;2022-09-01T00:42:14;15.50;99.90
24207;DHT22;12351;52.284;9.160;2022-09-01T00:45:01;15.50;99.90
24207;DHT22;12351;52.284;9.160;2022-09-01T00:47:48;15.40;99.90
24207;DHT22;12351;52.284;9.160;2022-09-01T00:50:36;15.50;99.90
24207;DHT22;12351;52.284;9.160;2022-09-01T00:53:24;15.60;99.90
24207;DHT22;12351;52.284;9.160;2022-09-01T00:56:11;15.50;99.90
24207;DHT22;12351;52.284;9.160;2022-09-01T00:58:59;15.40;99.90
24207;DHT22;12351;52.284;9.160;2022-09-01T01:01:47;15.20;99.90
24207;DHT22;12351;52.284;9.160;2022-09-01T01:04:34;15.10;99.90
24207;DHT22;12351;52.284;9.160;2022-09-01T01:07:22;14.90;99.90
24207;DHT22;12351;52.284;9.160;2022-09-01T01:10:12;14.80;99.90
24207;DHT22;12351;52.284;9.160;2022-09-01T01:13:00;14.70;99.90
24207;DHT22;12351;52.284;9.160;2022-09-01T01:15:47;14.70;99.90
24207;DHT22;12351;52.284;9.160;2022-09-01T01:18:34;14.60;99.90
24207;DHT22;12351;52.284;9.160;2022-09-01T01:21:24;14.50;99.90
24207;DHT22;12351;52.284;9.160;2022-09-01T01:27:03;14.60;99.90
24207;DHT22;12351;52.284;9.160;2022-09-01T01:29:51;14.70;99.90
24207;DHT22;12351;52.284;9.160;2022-09-01T01:32:39;14.70;99.90
24207;DHT22;12351;52.284;9.160;2022-09-01T01:35:29;14.90;99.90
24207;DHT22;12351;52.284;9.160;2022-09-01T01:38:17;14.90;99.90
24207;DHT22;12351;52.284;9.160;2022-09-01T01:41:05;15.00;99.90
24207;DHT22;12351;52.284;9.160;2022-09-01T01:43:52;15.10;99.90
24207;DHT22;12351;52.284;9.160;2022-09-01T01:46:42;15.00;99.90
24207;DHT22;12351;52.284;9.160;2022-09-01T01:49:29;15.10;99.90
24207;DHT22;12351;52.284;9.160;2022-09-01T01:52:16;15.20;99.90
24207;DHT22;12351;52.284;9.160;2022-09-01T01:55:05;15.20;99.90
24207;DHT22;12351;52.284;9.160;2022-09-01T01:57:54;15.20;99.90
24207;DHT22;12351;52.284;9.160;2022-09-01T02:00:41;15.30;99.90
24207;DHT22;12351;52.284;9.160;2022-09-01T02:03:31;15.20;99.90
24207;DHT22;12351;52.284;9.160;2022-09-01T02:06:21;15.20;99.90
24207;DHT22;12351;52.284;9.160;2022-09-01T02:09:10;15.00;99.90
24207;DHT22;12351;52.284;9.160;2022-09-01T02:11:56;14.60;99.90
24207;DHT22;12351;52.284;9.160;2022-09-01T02:14:44;14.50;99.90
24207;DHT22;12351;52.284;9.160;2022-09-01T02:17:33;14.50;99.90
24207;DHT22;12351;52.284;9.160;2022-09-01T02:20:20;14.50;99.90
24207;DHT22;12351;52.284;9.160;2022-09-01T02:23:07;14.40;99.90
24207;DHT22;12351;52.284;9.160;2022-09-01T02:25:58;14.40;99.90
24207;DHT22;12351;52.284;9.160;2022-09-01T02:28:47;14.40;99.90
24207;DHT22;12351;52.284;9.160;2022-09-01T02:31:35;14.30;99.90
24207;DHT22;12351;52.284;9.160;2022-09-01T02:34:25;14.10;99.90
24207;DHT22;12351;52.284;9.160;2022-09-01T02:37:13;14.10;99.90
24207;DHT22;12351;52.284;9.160;2022-09-01T02:40:01;14.10;99.90
24207;DHT22;12351;52.284;9.160;2022-09-01T02:42:47;13.90;99.90
24207;DHT22;12351;52.284;9.160;2022-09-01T02:45:36;13.80;99.90
24207;DHT22;12351;52.284;9.160;2022-09-01T02:48:26;13.80;99.90
24207;DHT22;12351;52.284;9.160;2022-09-01T02:51:17;13.90;99.90
24207;DHT22;12351;52.284;9.160;2022-09-01T02:54:04;13.90;99.90
24207;DHT22;12351;52.284;9.160;2022-09-01T02:56:51;13.80;99.90
24207;DHT22;12351;52.284;9.160;2022-09-01T02:59:38;13.80;99.90
24207;DHT22;12351;52.284;9.160;2022-09-01T03:02:26;13.90;99.90
24207;DHT22;12351;52.284;9.160;2022-09-01T03:05:13;14.00;99.90
24207;DHT22;12351;52.284;9.160;2022-09-01T03:08:04;14.00;99.90
24207;DHT22;12351;52.284;9.160;2022-09-01T03:10:52;13.90;99.90
24207;DHT22;12351;52.284;9.160;2022-09-01T03:13:40;13.60;99.90
24207;DHT22;12351;52.284;9.160;2022-09-01T03:16:28;13.40;99.90
24207;DHT22;12351;52.284;9.160;2022-09-01T03:19:16;13.50;99.90
24207;DHT22;12351;52.284;9.160;2022-09-01T03:22:03;13.40;99.90
24207;DHT22;12351;52.284;9.160;2022-09-01T03:24:51;13.40;99.90
24207;DHT22;12351;52.284;9.160;2022-09-01T03:27:37;13.30;99.90
24207;DHT22;12351;52.284;9.160;2022-09-01T03:30:25;13.30;99.90
24207;DHT22;12351;52.284;9.160;2022-09-01T03:33:13;13.30;99.90
24207;DHT22;12351;52.284;9.160;2022-09-01T03:36:03;13.20;99.90
24207;DHT22;12351;52.284;9.160;2022-09-01T03:38:51;13.20;99.90
24207;DHT22;12351;52.284;9.160;2022-09-01T03:41:38;13.10;99.90
24207;DHT22;12351;52.284;9.160;2022-09-01T03:44:26;13.20;99.90
24207;DHT22;12351;52.284;9.160;2022-09-01T03:47:13;13.00;99.90
24207;DHT22;12351;52.284;9.160;2022-09-01T03:50:01;13.20;99.90
24207;DHT22;12351;52.284;9.160;2022-09-01T03:52:51;13.10;99.90
24207;DHT22;12351;52.284;9.160;2022-09-01T03:55:39;13.10;99.90
24207;DHT22;12351;52.284;9.160;2022-09-01T03:58:27;13.10;99.90
24207;DHT22;12351;52.284;9.160;2022-09-01T04:01:14;13.10;99.90
24207;DHT22;12351;52.284;9.160;2022-09-01T04:04:01;13.20;99.90
24207;DHT22;12351;52.284;9.160;2022-09-01T04:06:49;13.20;99.90
24207;DHT22;12351;52.284;9.160;2022-09-01T04:09:36;13.20;99.90
24207;DHT22;12351;52.284;9.160;2022-09-01T04:12:24;13.10;99.90
24207;DHT22;12351;52.284;9.160;2022-09-01T04:15:13;13.10;99.90
24207;DHT22;12351;52.284;9.160;2022-09-01T04:18:01;13.10;99.90
24207;DHT22;12351;52.284;9.160;2022-09-01T04:20:53;13.10;99.90
24207;DHT22;12351;52.284;9.160;2022-09-01T04:23:41;12.80;99.90
24207;DHT22;12351;52.284;9.160;2022-09-01T04:26:30;12.90;99.90
24207;DHT22;12351;52.284;9.160;2022-09-01T04:29:20;12.90;99.90
24207;DHT22;12351;52.284;9.160;2022-09-01T04:32:10;13.00;99.90
24207;DHT22;12351;52.284;9.160;2022-09-01T04:34:57;12.90;99.90
24207;DHT22;12351;52.284;9.160;2022-09-01T04:37:45;13.00;99.90
24207;DHT22;12351;52.284;9.160;2022-09-01T04:43:24;13.00;99.90
24207;DHT22;12351;52.284;9.160;2022-09-01T04:46:11;13.00;99.90
24207;DHT22;12351;52.284;9.160;2022-09-01T04:48:59;12.90;99.90
24207;DHT22;12351;52.284;9.160;2022-09-01T04:51:49;12.80;99.90
24207;DHT22;12351;52.284;9.160;2022-09-01T04:54:37;12.70;99.90
24207;DHT22;12351;52.284;9.160;2022-09-01T04:57:25;12.80;99.90
24207;DHT22;12351;52.284;9.160;2022-09-01T05:00:17;12.70;99.90
24207;DHT22;12351;52.284;9.160;2022-09-01T05:03:06;12.70;99.90
24207;DHT22;12351;52.284;9.160;2022-09-01T05:05:55;12.80;99.90
24207;DHT22;12351;52.284;9.160;2022-09-01T05:08:44;12.80;99.90
24207;DHT22;12351;52.284;9.160;2022-09-01T05:11:32;12.90;99.90
24207;DHT22;12351;52.284;9.160;2022-09-01T05:14:21;12.70;99.90
24207;DHT22;12351;52.284;9.160;2022-09-01T05:17:10;12.70;99.90
24207;DHT22;12351;52.284;9.160;2022-09-01T05:19:58;12.60;99.90
24207;DHT22;12351;52.284;9.160;2022-09-01T05:22:46;12.60;99.90
24207;DHT22;12351;52.284;9.160;2022-09-01T05:28:23;12.70;99.90
24207;DHT22;12351;52.284;9.160;2022-09-01T05:31:11;12.80;99.90
24207;DHT22;12351;52.284;9.160;2022-09-01T05:33:59;12.90;99.90
24207;DHT22;12351;52.284;9.160;2022-09-01T05:36:46;12.90;99.90
24207;DHT22;12351;52.284;9.160;2022-09-01T05:39:36;13.00;99.90
24207;DHT22;12351;52.284;9.160;2022-09-01T05:42:24;13.10;99.90
24207;DHT22;12351;52.284;9.160;2022-09-01T05:45:13;13.30;99.90
24207;DHT22;12351;52.284;9.160;2022-09-01T05:48:01;13.60;99.90
24207;DHT22;12351;52.284;9.160;2022-09-01T05:50:51;13.70;99.90
24207;DHT22;12351;52.284;9.160;2022-09-01T05:53:39;13.70;99.90
24207;DHT22;12351;52.284;9.160;2022-09-01T05:56:29;13.80;99.90
24207;DHT22;12351;52.284;9.160;2022-09-01T05:59:16;13.70;99.90
24207;DHT22;12351;52.284;9.160;2022-09-01T06:02:05;13.80;99.90
24207;DHT22;12351;52.284;9.160;2022-09-01T06:04:54;13.80;99.90
24207;DHT22;12351;52.284;9.160;2022-09-01T06:07:41;14.00;99.90
24207;DHT22;12351;52.284;9.160;2022-09-01T06:10:29;14.10;99.90
24207;DHT22;12351;52.284;9.160;2022-09-01T06:13:18;14.20;99.90
24207;DHT22;12351;52.284;9.160;2022-09-01T06:16:07;14.10;99.90
24207;DHT22;12351;52.284;9.160;2022-09-01T06:18:56;14.10;99.90
24207;DHT22;12351;52.284;9.160;2022-09-01T06:21:44;14.00;99.90
24207;DHT22;12351;52.284;9.160;2022-09-01T06:24:31;14.00;99.90
24207;DHT22;12351;52.284;9.160;2022-09-01T06:27:19;14.00;99.90
24207;DHT22;12351;52.284;9.160;2022-09-01T06:30:07;13.90;99.90
24207;DHT22;12351;52.284;9.160;2022-09-01T06:32:55;14.20;99.90
24207;DHT22;12351;52.284;9.160;2022-09-01T06:35:44;14.20;99.90
24207;DHT22;12351;52.284;9.160;2022-09-01T06:38:32;14.40;99.90
24207;DHT22;12351;52.284;9.160;2022-09-01T06:41:21;14.30;99.90
24207;DHT22;12351;52.284;9.160;2022-09-01T06:44:08;14.70;99.90
24207;DHT22;12351;52.284;9.160;2022-09-01T06:46:56;14.90;99.90
24207;DHT22;12351;52.284;9.160;2022-09-01T06:49:44;15.10;99.90
24207;DHT22;12351;52.284;9.160;2022-09-01T06:52:31;15.10;99.90
24207;DHT22;12351;52.284;9.160;2022-09-01T06:55:19;15.10;99.90
24207;DHT22;12351;52.284;9.160;2022-09-01T06:58:08;15.30;99.90
24207;DHT22;12351;52.284;9.160;2022-09-01T07:00:56;15.60;99.90
24207;DHT22;12351;52.284;9.160;2022-09-01T07:03:45;15.70;99.90
24207;DHT22;12351;52.284;9.160;2022-09-01T07:06:32;15.90;99.90
24207;DHT22;12351;52.284;9.160;2022-09-01T07:09:19;16.10;99.90
24207;DHT22;12351;52.284;9.160;2022-09-01T07:12:06;16.10;99.90
24207;DHT22;12351;52.284;9.160;2022-09-01T07:14:54;16.30;99.90
24207;DHT22;12351;52.284;9.160;2022-09-01T07:17:46;16.40;99.90
24207;DHT22;12351;52.284;9.160;2022-09-01T07:20:34;16.60;99.90
24207;DHT22;12351;52.284;9.160;2022-09-01T07:23:22;16.50;99.90
24207;DHT22;12351;52.284;9.160;2022-09-01T07:26:10;16.80;99.90
24207;DHT22;12351;52.284;9.160;2022-09-01T07:28:58;16.80;99.90
24207;DHT22;12351;52.284;9.160;2022-09-01T07:31:47;17.00;99.90
24207;DHT22;12351;52.284;9.160;2022-09-01T07:34:35;17.30;99.90
24207;DHT22;12351;52.284;9.160;2022-09-01T07:37:21;17.20;99.90
24207;DHT22;12351;52.284;9.160;2022-09-01T07:40:10;17.20;99.90
24207;DHT22;12351;52.284;9.160;2022-09-01T07:42:58;17.20;99.90
24207;DHT22;12351;52.284;9.160;2022-09-01T07:45:46;17.50;99.90
24207;DHT22;12351;52.284;9.160;2022-09-01T07:48:34;17.50;99.90
24207;DHT22;12351;52.284;9.160;2022-09-01T07:51:24;17.80;99.90
24207;DHT22;12351;52.284;9.160;2022-09-01T07:54:11;17.60;99.90
24207;DHT22;12351;52.284;9.160;2022-09-01T07:56:58;17.80;99.90
24207;DHT22;12351;52.284;9.160;2022-09-01T07:59:46;17.70;99.90
24207;DHT22;12351;52.284;9.160;2022-09-01T08:02:34;17.90;99.90
24207;DHT22;12351;52.284;9.160;2022-09-01T08:05:23;17.90;99.90
24207;DHT22;12351;52.284;9.160;2022-09-01T08:08:11;17.90;99.90
24207;DHT22;12351;52.284;9.160;2022-09-01T08:10:58;18.30;99.90
24207;DHT22;12351;52.284;9.160;2022-09-01T08:13:45;18.30;99.90
24207;DHT22;12351;52.284;9.160;2022-09-01T08:16:32;18.20;99.90
24207;DHT22;12351;52.284;9.160;2022-09-01T08:19:19;18.40;99.90
24207;DHT22;12351;52.284;9.160;2022-09-01T08:22:06;18.60;99.90
24207;DHT22;12351;52.284;9.160;2022-09-01T08:24:53;18.80;99.90
24207;DHT22;12351;52.284;9.160;2022-09-01T08:27:40;18.60;99.90
24207;DHT22;12351;52.284;9.160;2022-09-01T08:30:27;18.70;99.90
24207;DHT22;12351;52.284;9.160;2022-09-01T08:33:15;18.60;99.90
24207;DHT22;12351;52.284;9.160;2022-09-01T08:36:03;18.90;99.90
24207;DHT22;12351;52.284;9.160;2022-09-01T08:38:51;19.20;99.90
24207;DHT22;12351;52.284;9.160;2022-09-01T08:47:19;19.20;99.90
24207;DHT22;12351;52.284;9.160;2022-09-01T08:50:06;19.30;99.90
24207;DHT22;12351;52.284;9.160;2022-09-01T08:52:59;19.60;99.90
24207;DHT22;12351;52.284;9.160;2022-09-01T08:55:46;19.60;99.90
24207;DHT22;12351;52.284;9.160;2022-09-01T08:58:33;19.30;99.90
24207;DHT22;12351;52.284;9.160;2022-09-01T09:01:26;19.50;99.90
24207;DHT22;12351;52.284;9.160;2022-09-01T09:09:44;19.50;99.90
24207;DHT22;12351;52.284;9.160;2022-09-01T09:12:35;19.40;99.90
24207;DHT22;12351;52.284;9.160;2022-09-01T09:20:52;19.90;99.90
24207;DHT22;12351;52.284;9.160;2022-09-01T09:23:41;19.90;99.90
24207;DHT22;12351;52.284;9.160;2022-09-01T09:26:30;19.90;99.90
24207;DHT22;12351;52.284;9.160;2022-09-01T09:29:17;19.80;99.90
24207;DHT22;12351;52.284;9.160;2022-09-01T09:32:08;19.90;99.90
24207;DHT22;12351;52.284;9.160;2022-09-01T09:34:55;20.10;99.90
24207;DHT22;12351;52.284;9.160;2022-09-01T09:37:43;20.30;99.90
24207;DHT22;12351;52.284;9.160;2022-09-01T09:40:30;20.20;99.90
24207;DHT22;12351;52.284;9.160;2022-09-01T09:43:16;20.00;99.90
24207;DHT22;12351;52.284;9.160;2022-09-01T09:51:46;20.00;99.90
24207;DHT22;12351;52.284;9.160;2022-09-01T09:54:36;20.20;99.90
24207;DHT22;12351;52.284;9.160;2022-09-01T09:57:23;20.20;99.90
24207;DHT22;12351;52.284;9.160;2022-09-01T10:03:03;20.40;99.90
24207;DHT22;12351;52.284;9.160;2022-09-01T10:05:49;20.40;99.90
24207;DHT22;12351;52.284;9.160;2022-09-01T10:08:41;20.20;99.90
24207;DHT22;12351;52.284;9.160;2022-09-01T10:14:21;20.60;99.90
24207;DHT22;12351;52.284;9.160;2022-09-01T10:17:11;20.60;99.90
24207;DHT22;12351;52.284;9.160;2022-09-01T10:22:49;20.70;99.90
24207;DHT22;12351;52.284;9.160;2022-09-01T10:25:36;20.70;99.90
24207;DHT22;12351;52.284;9.160;2022-09-01T10:28:24;20.30;99.90
24207;DHT22;12351;52.284;9.160;2022-09-01T10:31:13;20.40;99.90
24207;DHT22;12351;52.284;9.160;2022-09-01T10:34:02;20.30;99.90
24207;DHT22;12351;52.284;9.160;2022-09-01T10:36:50;20.00;99.90
24207;DHT22;12351;52.284;9.160;2022-09-01T10:42:27;19.80;99.90
24207;DHT22;12351;52.284;9.160;2022-09-01T10:45:19;19.50;99.90
24207;DHT22;12351;52.284;9.160;2022-09-01T10:48:36;19.30;99.90
24207;DHT22;12351;52.284;9.160;2022-09-01T10:53:45;19.10;99.90
24207;DHT22;12351;52.284;9.160;2022-09-01T10:59:24;19.50;99.90
24207;DHT22;12351;52.284;9.160;2022-09-01T11:07:42;19.90;99.90
24207;DHT22;12351;52.284;9.160;2022-09-01T11:24:46;20.30;99.90
24207;DHT22;12351;52.284;9.160;2022-09-01T11:35:57;20.40;99.90
24207;DHT22;12351;52.284;9.160;2022-09-01T11:38:46;20.90;99.90
24207;DHT22;12351;52.284;9.160;2022-09-01T11:47:17;20.70;99.90
24207;DHT22;12351;52.284;9.160;2022-09-01T11:50:07;20.30;99.90
24207;DHT22;12351;52.284;9.160;2022-09-01T11:55:45;20.20;99.90
24207;DHT22;12351;52.284;9.160;2022-09-01T11:58:34;20.00;99.90
24207;DHT22;12351;52.284;9.160;2022-09-01T12:07:05;20.10;99.90
24207;DHT22;12351;52.284;9.160;2022-09-01T12:09:51;19.90;99.90
24207;DHT22;12351;52.284;9.160;2022-09-01T12:12:39;20.00;99.90
24207;DHT22;12351;52.284;9.160;2022-09-01T12:15:26;20.00;99.90
24207;DHT22;12351;52.284;9.160;2022-09-01T12:21:04;20.20;99.90
24207;DHT22;12351;52.284;9.160;2022-09-01T12:23:52;20.30;99.90
24207;DHT22;12351;52.284;9.160;2022-09-01T12:26:40;20.20;99.90
24207;DHT22;12351;52.284;9.160;2022-09-01T12:29:30;20.20;99.90
24207;DHT22;12351;52.284;9.160;2022-09-01T12:32:17;20.10;99.50
24207;DHT22;12351;52.284;9.160;2022-09-01T12:35:13;20.10;99.40
24207;DHT22;12351;52.284;9.160;2022-09-01T12:40:46;20.70;98.40
24207;DHT22;12351;52.284;9.160;2022-09-01T12:43:37;21.00;97.50
24207;DHT22;12351;52.284;9.160;2022-09-01T13:00:36;21.60;90.60
24207;DHT22;12351;52.284;9.160;2022-09-01T13:03:24;21.60;89.20
24207;DHT22;12351;52.284;9.160;2022-09-01T13:06:12;21.70;89.50
24207;DHT22;12351;52.284;9.160;2022-09-01T13:08:59;21.50;85.20
24207;DHT22;12351;52.284;9.160;2022-09-01T13:11:46;21.60;88.00
24207;DHT22;12351;52.284;9.160;2022-09-01T13:14:33;21.60;83.30
24207;DHT22;12351;52.284;9.160;2022-09-01T13:17:20;21.30;82.50
24207;DHT22;12351;52.284;9.160;2022-09-01T13:20:09;21.20;87.80
24207;DHT22;12351;52.284;9.160;2022-09-01T13:22:57;21.10;84.60
24207;DHT22;12351;52.284;9.160;2022-09-01T13:25:45;21.10;85.70
24207;DHT22;12351;52.284;9.160;2022-09-01T13:28:31;20.70;86.30
24207;DHT22;12351;52.284;9.160;2022-09-01T13:31:18;20.50;85.40
24207;DHT22;12351;52.284;9.160;2022-09-01T13:34:05;20.70;84.50
24207;DHT22;12351;52.284;9.160;2022-09-01T13:36:52;20.90;86.60
24207;DHT22;12351;52.284;9.160;2022-09-01T13:39:39;21.10;86.70
24207;DHT22;12351;52.284;9.160;2022-09-01T13:42:26;21.20;85.40
24207;DHT22;12351;52.284;9.160;2022-09-01T13:45:14;21.50;82.50
24207;DHT22;12351;52.284;9.160;2022-09-01T13:48:03;21.40;83.90
24207;DHT22;12351;52.284;9.160;2022-09-01T13:50:51;21.20;81.00
24207;DHT22;12351;52.284;9.160;2022-09-01T13:53:37;20.80;84.30
24207;DHT22;12351;52.284;9.160;2022-09-01T13:56:24;20.50;83.90
24207;DHT22;12351;52.284;9.160;2022-09-01T13:59:11;20.70;84.80
24207;DHT22;12351;52.284;9.160;2022-09-01T14:01:58;20.20;84.90
24207;DHT22;12351;52.284;9.160;2022-09-01T14:04:46;20.10;84.60
24207;DHT22;12351;52.284;9.160;2022-09-01T14:07:32;20.70;87.10
24207;DHT22;12351;52.284;9.160;2022-09-01T14:10:21;21.10;83.30
24207;DHT22;12351;52.284;9.160;2022-09-01T14:13:09;21.30;83.30
24207;DHT22;12351;52.284;9.160;2022-09-01T14:15:56;21.30;81.20
24207;DHT22;12351;52.284;9.160;2022-09-01T14:18:43;21.10;81.50
24207;DHT22;12351;52.284;9.160;2022-09-01T14:21:30;20.90;82.30
24207;DHT22;12351;52.284;9.160;2022-09-01T14:24:17;21.10;82.80
24207;DHT22;12351;52.284;9.160;2022-09-01T14:27:05;21.00;85.60
24207;DHT22;12351;52.284;9.160;2022-09-01T14:29:52;21.10;82.80
24207;DHT22;12351;52.284;9.160;2022-09-01T14:32:39;21.30;83.10
24207;DHT22;12351;52.284;9.160;2022-09-01T14:35:26;21.30;83.10
24207;DHT22;12351;52.284;9.160;2022-09-01T14:38:13;21.30;82.50
24207;DHT22;12351;52.284;9.160;2022-09-01T14:41:01;21.70;81.00
24207;DHT22;12351;52.284;9.160;2022-09-01T14:43:49;21.30;77.40
24207;DHT22;12351;52.284;9.160;2022-09-01T14:46:36;21.50;78.00
24207;DHT22;12351;52.284;9.160;2022-09-01T14:49:24;21.60;78.20
24207;DHT22;12351;52.284;9.160;2022-09-01T14:52:11;21.90;80.20
24207;DHT22;12351;52.284;9.160;2022-09-01T14:54:59;21.60;85.00
24207;DHT22;12351;52.284;9.160;2022-09-01T14:57:47;22.00;86.80
24207;DHT22;12351;52.284;9.160;2022-09-01T15:00:33;21.80;85.90
24207;DHT22;12351;52.284;9.160;2022-09-01T15:03:23;21.90;86.30
24207;DHT22;12351;52.284;9.160;2022-09-01T15:06:13;21.70;86.50
24207;DHT22;12351;52.284;9.160;2022-09-01T15:09:00;21.60;86.80
24207;DHT22;12351;52.284;9.160;2022-09-01T15:11:47;21.70;87.20
24207;DHT22;12351;52.284;9.160;2022-09-01T15:14:35;21.80;87.90
24207;DHT22;12351;52.284;9.160;2022-09-01T15:17:22;21.50;86.80
24207;DHT22;12351;52.284;9.160;2022-09-01T15:20:09;21.10;88.50
24207;DHT22;12351;52.284;9.160;2022-09-01T15:22:57;21.50;85.80
24207;DHT22;12351;52.284;9.160;2022-09-01T15:25:45;21.40;85.40
24207;DHT22;12351;52.284;9.160;2022-09-01T15:28:32;21.50;85.80
24207;DHT22;12351;52.284;9.160;2022-09-01T15:31:20;21.50;88.30
24207;DHT22;12351;52.284;9.160;2022-09-01T15:34:09;21.50;86.70
24207;DHT22;12351;52.284;9.160;2022-09-01T15:36:58;21.20;86.60
24207;DHT22;12351;52.284;9.160;2022-09-01T15:39:44;20.80;88.20
24207;DHT22;12351;52.284;9.160;2022-09-01T15:42:32;20.80;90.10
24207;DHT22;12351;52.284;9.160;2022-09-01T15:45:21;20.80;90.10
24207;DHT22;12351;52.284;9.160;2022-09-01T15:48:08;20.40;90.70
24207;DHT22;12351;52.284;9.160;2022-09-01T15:51:01;20.90;91.10
24207;DHT22;12351;52.284;9.160;2022-09-01T15:53:44;20.90;91.10
24207;DHT22;12351;52.284;9.160;2022-09-01T15:56:31;20.90;91.40
24207;DHT22;12351;52.284;9.160;2022-09-01T16:02:09;20.40;90.00
24207;DHT22;12351;52.284;9.160;2022-09-01T16:04:57;20.20;89.00
24207;DHT22;12351;52.284;9.160;2022-09-01T16:07:44;20.10;90.20
24207;DHT22;12351;52.284;9.160;2022-09-01T16:10:31;20.40;90.00
24207;DHT22;12351;52.284;9.160;2022-09-01T16:13:20;20.40;88.40
24207;DHT22;12351;52.284;9.160;2022-09-01T16:16:12;20.60;88.50
24207;DHT22;12351;52.284;9.160;2022-09-01T16:19:03;20.40;90.00
24207;DHT22;12351;52.284;9.160;2022-09-01T16:21:53;20.30;89.40
24207;DHT22;12351;52.284;9.160;2022-09-01T16:24:42;20.20;89.10
24207;DHT22;12351;52.284;9.160;2022-09-01T16:27:31;20.20;90.30
24207;DHT22;12351;52.284;9.160;2022-09-01T16:30:20;20.10;90.70
24207;DHT22;12351;52.284;9.160;2022-09-01T16:33:07;20.20;91.00
24207;DHT22;12351;52.284;9.160;2022-09-01T16:56:15;20.60;93.20
24207;DHT22;12351;52.284;9.160;2022-09-01T17:12:45;21.50;84.00
24207;DHT22;12351;52.284;9.160;2022-09-01T17:15:34;21.40;84.80
24207;DHT22;12351;52.284;9.160;2022-09-01T17:26:44;21.60;83.10
24207;DHT22;12351;52.284;9.160;2022-09-01T17:40:48;21.40;83.40
24207;DHT22;12351;52.284;9.160;2022-09-01T18:00:48;21.00;84.90
24207;DHT22;12351;52.284;9.160;2022-09-01T18:03:38;20.90;85.10
24207;DHT22;12351;52.284;9.160;2022-09-01T18:09:19;20.70;87.50
24207;DHT22;12351;52.284;9.160;2022-09-01T18:12:09;20.70;87.60
24207;DHT22;12351;52.284;9.160;2022-09-01T18:17:53;20.70;90.50
24207;DHT22;12351;52.284;9.160;2022-09-01T18:20:41;20.50;89.70
24207;DHT22;12351;52.284;9.160;2022-09-01T18:23:31;20.40;89.20
24207;DHT22;12351;52.284;9.160;2022-09-01T18:26:21;20.30;89.00
24207;DHT22;12351;52.284;9.160;2022-09-01T18:29:08;20.20;89.20
24207;DHT22;12351;52.284;9.160;2022-09-01T18:40:30;20.00;90.00
24207;DHT22;12351;52.284;9.160;2022-09-01T18:49:01;19.80;90.10
24207;DHT22;12351;52.284;9.160;2022-09-01T18:57:17;19.40;90.90
24207;DHT22;12351;52.284;9.160;2022-09-01T19:14:15;19.10;94.20
24207;DHT22;12351;52.284;9.160;2022-09-01T19:19:54;18.90;96.00
24207;DHT22;12351;52.284;9.160;2022-09-01T19:22:46;18.90;96.90
24207;DHT22;12351;52.284;9.160;2022-09-01T19:25:32;18.90;97.70
24207;DHT22;12351;52.284;9.160;2022-09-01T19:28:24;18.80;98.40
24207;DHT22;12351;52.284;9.160;2022-09-01T19:33:56;18.80;99.90
24207;DHT22;12351;52.284;9.160;2022-09-01T19:36:47;18.60;99.90
24207;DHT22;12351;52.284;9.160;2022-09-01T19:39:36;18.60;99.90
24207;DHT22;12351;52.284;9.160;2022-09-01T19:42:29;18.60;99.90
24207;DHT22;12351;52.284;9.160;2022-09-01T19:48:09;18.50;99.90
24207;DHT22;12351;52.284;9.160;2022-09-01T19:59:34;18.40;99.90
24207;DHT22;12351;52.284;9.160;2022-09-01T20:02:24;18.30;99.90
24207;DHT22;12351;52.284;9.160;2022-09-01T20:05:12;18.30;99.90
24207;DHT22;12351;52.284;9.160;2022-09-01T20:13:33;18.20;99.90
24207;DHT22;12351;52.284;9.160;2022-09-01T20:19:10;18.00;99.90
24207;DHT22;12351;52.284;9.160;2022-09-01T20:22:02;18.00;99.90
24207;DHT22;12351;52.284;9.160;2022-09-01T20:24:47;18.00;99.90
24207;DHT22;12351;52.284;9.160;2022-09-01T20:30:27;18.10;99.90
24207;DHT22;12351;52.284;9.160;2022-09-01T20:38:47;17.80;99.90
24207;DHT22;12351;52.284;9.160;2022-09-01T20:47:20;17.70;99.90
24207;DHT22;12351;52.284;9.160;2022-09-01T20:50:11;17.70;99.90
24207;DHT22;12351;52.284;9.160;2022-09-01T20:58:42;17.50;99.90
24207;DHT22;12351;52.284;9.160;2022-09-01T21:01:33;17.50;99.90
24207;DHT22;12351;52.284;9.160;2022-09-01T21:07:13;17.30;99.90
24207;DHT22;12351;52.284;9.160;2022-09-01T21:10:04;17.30;99.90
24207;DHT22;12351;52.284;9.160;2022-09-01T21:15:46;17.50;99.90
24207;DHT22;12351;52.284;9.160;2022-09-01T21:24:10;17.40;99.90
24207;DHT22;12351;52.284;9.160;2022-09-01T21:27:00;17.30;99.90
24207;DHT22;12351;52.284;9.160;2022-09-01T21:32:38;17.40;99.90
24207;DHT22;12351;52.284;9.160;2022-09-01T21:35:25;17.30;99.90
24207;DHT22;12351;52.284;9.160;2022-09-01T21:38:12;17.20;99.90
24207;DHT22;12351;52.284;9.160;2022-09-01T21:41:00;17.30;99.90
24207;DHT22;12351;52.284;9.160;2022-09-01T21:43:47;17.30;99.90
24207;DHT22;12351;52.284;9.160;2022-09-01T21:46:35;17.40;99.90
24207;DHT22;12351;52.284;9.160;2022-09-01T21:49:22;17.30;99.90
24207;DHT22;12351;52.284;9.160;2022-09-01T21:52:09;17.40;99.90
24207;DHT22;12351;52.284;9.160;2022-09-01T21:54:56;17.30;99.90
24207;DHT22;12351;52.284;9.160;2022-09-01T21:57:42;17.30;99.90
24207;DHT22;12351;52.284;9.160;2022-09-01T22:00:33;17.30;99.90
24207;DHT22;12351;52.284;9.160;2022-09-01T22:03:23;17.30;99.90
24207;DHT22;12351;52.284;9.160;2022-09-01T22:06:13;17.30;99.90
24207;DHT22;12351;52.284;9.160;2022-09-01T22:09:00;17.30;99.90
24207;DHT22;12351;52.284;9.160;2022-09-01T22:11:48;17.30;99.90
24207;DHT22;12351;52.284;9.160;2022-09-01T22:14:36;17.20;99.90
24207;DHT22;12351;52.284;9.160;2022-09-01T22:17:23;17.20;99.90
24207;DHT22;12351;52.284;9.160;2022-09-01T22:20:13;17.10;99.90
24207;DHT22;12351;52.284;9.160;2022-09-01T22:23:02;17.10;99.90